createdAt,value
2022-08-16T00:01:34.239Z,97604.63
2022-08-16T00:04:10.274Z,97608.22
2022-08-16T00:06:40.161Z,97604.91
2022-08-16T00:09:11.749Z,97597.75
2022-08-16T00:11:45.943Z,97601.94
2022-08-16T00:14:24.303Z,97603.66
2022-08-16T00:17:15.595Z,97601.63
2022-08-16T00:19:53.701Z,97600.91
2022-08-16T00:22:27.975Z,97596.41
2022-08-16T00:24:58.463Z,97601.63
2022-08-16T00:27:27.442Z,97599.00
2022-08-16T00:30:00.464Z,97602.81
2022-08-16T00:32:32.994Z,97598.28
2022-08-16T00:35:02.791Z,97602.47
2022-08-16T00:37:58.252Z,97607.91
2022-08-16T00:40:43.847Z,97606.91
2022-08-16T00:43:24.797Z,97611.53
2022-08-16T00:46:33.118Z,97625.03
2022-08-16T00:48:52.700Z,97611.84
2022-08-16T00:51:26.286Z,97611.09
2022-08-16T00:53:59.016Z,97619.81
2022-08-16T00:56:58.230Z,97613.63
2022-08-16T00:59:27.445Z,97610.19
2022-08-16T01:01:57.377Z,97615.41
2022-08-16T01:04:30.927Z,97611.91
2022-08-16T01:07:02.808Z,97610.09
2022-08-16T01:09:37.408Z,97613.44
2022-08-16T01:12:26.302Z,97616.97
2022-08-16T01:15:01.111Z,97625.66
2022-08-16T01:17:36.881Z,97624.44
2022-08-16T01:20:23.659Z,97628.56
2022-08-16T01:23:09.119Z,97614.34
2022-08-16T01:25:59.858Z,97608.19
2022-08-16T01:28:47.175Z,97611.72
2022-08-16T01:31:20.740Z,97611.13
2022-08-16T01:34:01.035Z,97623.94
2022-08-16T01:36:31.203Z,97627.66
2022-08-16T01:39:00.204Z,97628.91
2022-08-16T01:41:32.047Z,97627.91
2022-08-16T01:44:01.627Z,97626.28
2022-08-16T01:46:39.976Z,97627.50
2022-08-16T01:49:18.603Z,97629.78
2022-08-16T01:51:52.538Z,97626.06
2022-08-16T01:54:31.215Z,97636.44
2022-08-16T01:57:03.632Z,97632.69
2022-08-16T01:59:36.638Z,97629.44
2022-08-16T02:02:07.229Z,97630.25
2022-08-16T02:04:56.400Z,97636.63
2022-08-16T02:07:27.518Z,97632.94
2022-08-16T02:10:02.229Z,97634.00
2022-08-16T02:12:50.654Z,97633.16
2022-08-16T02:15:26.092Z,97633.78
2022-08-16T02:17:56.311Z,97641.44
2022-08-16T02:20:28.061Z,97639.78
2022-08-16T02:22:58.841Z,97632.75
2022-08-16T02:25:50.952Z,97638.97
2022-08-16T02:28:23.311Z,97637.31
2022-08-16T02:30:54.813Z,97643.09
2022-08-16T02:33:44.134Z,97643.91
2022-08-16T02:36:47.545Z,97652.59
2022-08-16T02:39:12.020Z,97638.97
2022-08-16T02:41:53.427Z,97653.81
2022-08-16T02:44:26.904Z,97652.81
2022-08-16T02:46:57.874Z,97647.66
2022-08-16T02:49:32.249Z,97640.59
2022-08-16T02:52:24.456Z,97646.38
2022-08-16T02:54:58.791Z,97648.47
2022-08-16T02:57:28.821Z,97644.97
2022-08-16T03:00:00.153Z,97648.88
2022-08-16T03:02:32.982Z,97637.94
2022-08-16T03:05:02.116Z,97637.34
2022-08-16T03:07:37.169Z,97632.38
2022-08-16T03:10:13.395Z,97631.13
2022-08-16T03:12:55.653Z,97640.63
2022-08-16T03:15:27.769Z,97649.91
2022-08-16T03:17:57.182Z,97641.03
2022-08-16T03:20:32.536Z,97640.63
2022-08-16T03:23:04.087Z,97643.28
2022-08-16T03:25:40.835Z,97636.88
2022-08-16T03:28:13.191Z,97648.25
2022-08-16T03:30:43.939Z,97645.13
2022-08-16T03:33:13.120Z,97642.06
2022-08-16T03:35:44.134Z,97642.47
2022-08-16T03:38:34.125Z,97641.44
2022-08-16T03:41:17.174Z,97645.97
2022-08-16T03:43:54.569Z,97638.31
2022-08-16T03:46:48.141Z,97646.38
2022-08-16T03:49:14.929Z,97654.59
2022-08-16T03:51:45.169Z,97652.56
2022-08-16T03:54:14.453Z,97662.00
2022-08-16T03:56:56.612Z,97665.28
2022-08-16T03:59:29.247Z,97660.78
2022-08-16T04:02:02.812Z,97660.78
2022-08-16T04:04:35.988Z,97663.66
2022-08-16T04:07:08.116Z,97666.13
2022-08-16T04:09:38.507Z,97661.97
2022-08-16T04:12:11.308Z,97659.09
2022-08-16T04:14:59.222Z,97654.75
2022-08-16T04:17:29.819Z,97654.75
2022-08-16T04:19:59.888Z,97662.38
2022-08-16T04:22:29.480Z,97674.34
2022-08-16T04:24:59.334Z,97671.03
2022-08-16T04:27:31.746Z,97680.09
2022-08-16T04:30:02.871Z,97681.69
2022-08-16T04:32:35.616Z,97689.72
2022-08-16T04:35:16.333Z,97695.09
2022-08-16T04:37:46.836Z,97686.22
2022-08-16T04:40:27.362Z,97690.72
2022-08-16T04:42:56.743Z,97685.81
2022-08-16T04:45:35.616Z,97690.72
2022-08-16T04:48:07.813Z,97687.66
2022-08-16T04:50:41.737Z,97693.22
2022-08-16T04:53:15.706Z,97691.97
2022-08-16T04:55:45.644Z,97699.03
2022-08-16T04:58:41.378Z,97705.38
2022-08-16T05:01:04.288Z,97708.53
2022-08-16T05:04:00.846Z,97710.41
2022-08-16T05:06:44.768Z,97729.16
2022-08-16T05:09:17.019Z,97710.00
2022-08-16T05:11:46.569Z,97706.50
2022-08-16T05:14:20.282Z,97706.91
2022-08-16T05:17:07.809Z,97707.75
2022-08-16T05:19:38.307Z,97718.50
2022-08-16T05:22:07.326Z,97720.59
2022-08-16T05:24:54.876Z,97722.03
2022-08-16T05:27:24.667Z,97720.78
2022-08-16T05:30:00.693Z,97724.72
2022-08-16T05:32:33.005Z,97737.53
2022-08-16T05:35:10.978Z,97735.06
2022-08-16T05:37:42.447Z,97739.81
2022-08-16T05:40:15.230Z,97732.00
2022-08-16T05:42:47.660Z,97731.19
2022-08-16T05:45:21.984Z,97740.88
2022-08-16T05:47:59.837Z,97725.59
2022-08-16T05:50:34.065Z,97726.84
2022-08-16T05:53:03.484Z,97729.97
2022-08-16T05:55:40.491Z,97725.88
2022-08-16T05:58:10.031Z,97714.72
2022-08-16T06:00:58.896Z,97728.53
2022-08-16T06:03:29.492Z,97720.06
2022-08-16T06:06:00.625Z,97737.00
2022-08-16T06:08:32.525Z,97742.38
2022-08-16T06:11:13.408Z,97742.56
2022-08-16T06:13:43.405Z,97737.78
2022-08-16T06:16:18.086Z,97733.63
2022-08-16T06:18:47.694Z,97730.53
2022-08-16T06:21:23.730Z,97732.97
2022-08-16T06:23:54.855Z,97724.88
2022-08-16T06:26:24.856Z,97731.22
2022-08-16T06:29:07.846Z,97725.66
2022-08-16T06:31:45.296Z,97729.31
2022-08-16T06:34:55.579Z,97723.84
2022-08-16T06:37:08.935Z,97725.66
2022-08-16T06:39:49.312Z,97724.75
2022-08-16T06:42:19.947Z,97727.97
2022-08-16T06:44:50.258Z,97724.13
2022-08-16T06:47:19.352Z,97721.59
2022-08-16T06:49:53.817Z,97717.81
2022-08-16T06:52:58.237Z,97719.78
2022-08-16T06:55:16.046Z,97712.66
2022-08-16T06:57:45.322Z,97716.25
2022-08-16T07:00:17.179Z,97717.78
2022-08-16T07:02:54.754Z,97713.06
2022-08-16T07:05:27.280Z,97714.56
2022-08-16T07:08:12.080Z,97707.75
2022-08-16T07:10:41.822Z,97718.38
2022-08-16T07:13:12.129Z,97714.94
2022-08-16T07:15:50.823Z,97719.69
2022-08-16T07:18:21.263Z,97719.06
2022-08-16T07:20:55.398Z,97717.53
2022-08-16T07:23:37.179Z,97705.13
2022-08-16T07:26:24.817Z,97714.19
2022-08-16T07:28:57.394Z,97707.38
2022-08-16T07:31:38.094Z,97700.59
2022-08-16T07:34:10.029Z,97707.97
2022-08-16T07:36:41.425Z,97707.34
2022-08-16T07:39:19.493Z,97703.66
2022-08-16T07:41:51.543Z,97700.75
2022-08-16T07:44:22.094Z,97695.28
2022-08-16T07:46:55.543Z,97695.31
2022-08-16T07:49:26.102Z,97704.38
2022-08-16T07:52:01.442Z,97700.91
2022-08-16T07:54:49.360Z,97713.63
2022-08-16T07:57:24.111Z,97707.09
2022-08-16T07:59:53.615Z,97701.84
2022-08-16T08:02:27.377Z,97702.28
2022-08-16T08:04:57.652Z,97704.41
2022-08-16T08:07:28.123Z,97702.69
2022-08-16T08:09:59.317Z,97701.31
2022-08-16T08:12:31.857Z,97707.06
2022-08-16T08:15:09.680Z,97706.00
2022-08-16T08:17:42.171Z,97699.00
2022-08-16T08:20:26.554Z,97698.50
2022-08-16T08:23:01.302Z,97698.88
2022-08-16T08:25:32.722Z,97694.03
2022-08-16T08:28:21.885Z,97687.59
2022-08-16T08:31:01.267Z,97701.81
2022-08-16T08:33:35.832Z,97692.00
2022-08-16T08:36:21.611Z,97690.09
2022-08-16T08:38:54.215Z,97708.13
2022-08-16T08:41:28.758Z,97705.69
2022-08-16T08:43:58.400Z,97702.41
2022-08-16T08:46:28.955Z,97711.38
2022-08-16T08:49:08.725Z,97712.72
2022-08-16T08:51:39.194Z,97709.06
2022-08-16T08:54:11.325Z,97712.72
2022-08-16T08:56:45.387Z,97709.69
2022-08-16T08:59:19.713Z,97702.25
2022-08-16T09:01:56.203Z,97705.03
2022-08-16T09:04:28.108Z,97698.81
2022-08-16T09:06:58.373Z,97699.88
2022-08-16T09:09:33.438Z,97705.31
2022-08-16T09:12:06.968Z,97700.50
2022-08-16T09:14:38.747Z,97701.75
2022-08-16T09:17:47.187Z,97706.81
2022-08-16T09:20:13.476Z,97699.38
2022-08-16T09:22:44.095Z,97702.16
2022-08-16T09:25:26.363Z,97694.72
2022-08-16T09:28:09.539Z,97688.38
2022-08-16T09:30:43.378Z,97694.03
2022-08-16T09:33:19.662Z,97695.28
2022-08-16T09:35:54.519Z,97690.34
2022-08-16T09:38:32.301Z,97687.00
2022-08-16T09:41:02.963Z,97692.41
2022-08-16T09:43:59.470Z,97682.88
2022-08-16T09:46:48.632Z,97685.63
2022-08-16T09:49:13.270Z,97694.34
2022-08-16T09:51:45.093Z,97689.44
2022-08-16T09:54:16.761Z,97691.75
2022-08-16T09:56:52.870Z,97684.53
2022-08-16T09:59:30.641Z,97685.63
2022-08-16T10:02:26.030Z,97684.56
2022-08-16T10:04:54.506Z,97691.19
2022-08-16T10:07:25.030Z,97683.19
2022-08-16T10:09:55.276Z,97692.41
2022-08-16T10:12:45.630Z,97691.47
2022-08-16T10:15:20.947Z,97696.06
2022-08-16T10:18:00.820Z,97697.69
2022-08-16T10:20:34.650Z,97703.22
2022-08-16T10:23:08.346Z,97699.53
2022-08-16T10:27:18.139Z,97702.22
2022-08-16T10:28:32.525Z,97697.81
2022-08-16T10:31:16.741Z,97695.53
2022-08-16T10:34:02.542Z,97699.94
2022-08-16T10:36:38.834Z,97694.81
2022-08-16T10:39:09.209Z,97694.53
2022-08-16T10:41:38.073Z,97693.44
2022-08-16T10:44:09.535Z,97692.88
2022-08-16T10:46:42.010Z,97692.53
2022-08-16T10:49:16.894Z,97693.84
2022-08-16T10:52:01.528Z,97701.00
2022-08-16T10:54:32.946Z,97694.50
2022-08-16T10:57:05.245Z,97700.22
2022-08-16T10:59:52.926Z,97699.66
2022-08-16T11:03:04.737Z,97693.41
2022-08-16T11:05:19.149Z,97695.88
2022-08-16T11:07:52.658Z,97688.28
2022-08-16T11:13:58.163Z,97681.03
2022-08-16T11:16:27.378Z,97676.47
2022-08-16T11:19:06.206Z,97679.28
2022-08-16T11:24:39.856Z,97677.53
2022-08-16T11:27:20.216Z,97670.13
2022-08-16T11:29:53.366Z,97670.00
2022-08-16T11:32:31.395Z,97667.81
2022-08-16T11:35:10.658Z,97669.25
2022-08-16T11:40:40.798Z,97658.25
2022-08-16T11:43:16.783Z,97658.66
2022-08-16T11:45:53.783Z,97655.47
2022-08-16T11:48:24.838Z,97656.84
2022-08-16T11:50:56.956Z,97668.25
2022-08-16T11:53:27.009Z,97655.28
2022-08-16T11:55:58.090Z,97658.13
2022-08-16T11:58:31.584Z,97657.38
2022-08-16T12:01:02.947Z,97651.66
2022-08-16T12:03:35.236Z,97657.09
2022-08-16T12:06:24.807Z,97655.75
2022-08-16T12:09:01.852Z,97648.06
2022-08-16T12:11:33.158Z,97644.97
2022-08-16T12:14:04.680Z,97652.06
2022-08-16T12:16:36.831Z,97647.97
2022-08-16T12:19:10.779Z,97644.38
2022-08-16T12:21:58.077Z,97653.84
2022-08-16T12:24:29.110Z,97656.69
2022-08-16T12:27:00.147Z,97642.22
2022-08-16T12:29:30.561Z,97650.88
2022-08-16T12:32:12.086Z,97650.88
2022-08-16T12:34:52.569Z,97647.97
2022-08-16T12:37:24.809Z,97647.59
2022-08-16T12:39:57.890Z,97660.38
2022-08-16T12:42:35.379Z,97648.81
2022-08-16T12:45:08.119Z,97648.44
2022-08-16T12:48:09.897Z,97656.97
2022-08-16T12:50:49.176Z,97650.66
2022-08-16T12:53:21.659Z,97645.69
2022-08-16T12:55:51.699Z,97646.50
2022-08-16T12:58:49.973Z,97638.38
2022-08-16T13:01:12.060Z,97637.59
2022-08-16T13:03:41.416Z,97630.78
2022-08-16T13:06:12.497Z,97626.09
2022-08-16T13:08:45.372Z,97621.38
2022-08-16T13:11:18.134Z,97619.47
2022-08-16T13:13:47.012Z,97621.69
2022-08-16T13:16:24.797Z,97617.56
2022-08-16T13:18:54.579Z,97629.84
2022-08-16T13:21:24.814Z,97632.31
2022-08-16T13:23:57.156Z,97625.91
2022-08-16T13:26:27.735Z,97624.59
2022-08-16T13:28:56.737Z,97624.06
2022-08-16T13:31:26.250Z,97624.78
2022-08-16T13:33:58.663Z,97627.41
2022-08-16T13:36:48.869Z,97625.53
2022-08-16T13:39:20.280Z,97631.25
2022-08-16T13:41:54.092Z,97629.13
2022-08-16T13:44:48.480Z,97625.66
2022-08-16T13:47:12.736Z,97624.28
2022-08-16T13:49:43.354Z,97620.72
2022-08-16T13:52:13.858Z,97618.72
2022-08-16T13:54:44.372Z,97628.03
2022-08-16T13:57:14.143Z,97613.63
2022-08-16T13:59:43.389Z,97616.34
2022-08-16T14:02:14.299Z,97607.06
2022-08-16T14:04:44.909Z,97609.13
2022-08-16T14:07:19.982Z,97614.78
2022-08-16T14:09:55.295Z,97611.72
2022-08-16T14:12:29.031Z,97610.22
2022-08-16T14:14:59.300Z,97605.41
2022-08-16T14:17:38.402Z,97604.81
2022-08-16T14:20:21.161Z,97604.66
2022-08-16T14:22:52.570Z,97608.13
2022-08-16T14:25:26.842Z,97604.03
2022-08-16T14:27:56.302Z,97602.66
2022-08-16T14:30:26.407Z,97598.97
2022-08-16T14:32:56.127Z,97598.81
2022-08-16T14:35:48.291Z,97594.91
2022-08-16T14:38:23.453Z,97608.25
2022-08-16T14:40:55.409Z,97592.66
2022-08-16T14:43:25.184Z,97583.91
2022-08-16T14:45:55.534Z,97588.56
2022-08-16T14:48:26.390Z,97591.19
2022-08-16T14:50:56.169Z,97588.75
2022-08-16T14:53:27.812Z,97588.28
2022-08-16T14:55:58.443Z,97584.16
2022-08-16T14:58:34.688Z,97579.09
2022-08-16T15:01:06.569Z,97580.81
2022-08-16T15:03:44.482Z,97576.53
2022-08-16T15:06:14.441Z,97580.66
2022-08-16T15:08:43.893Z,97586.16
2022-08-16T15:11:16.265Z,97579.66
2022-08-16T15:13:46.771Z,97580.91
2022-08-16T15:16:16.591Z,97580.28
2022-08-16T15:18:46.489Z,97580.00
2022-08-16T15:21:16.293Z,97586.16
2022-08-16T15:23:45.150Z,97585.50
2022-08-16T15:26:34.736Z,97589.06
2022-08-16T15:29:05.677Z,97576.44
2022-08-16T15:31:37.564Z,97569.94
2022-08-16T15:34:06.449Z,97575.84
2022-08-16T15:36:35.371Z,97570.66
2022-08-16T15:39:35.627Z,97580.31
2022-08-16T15:42:11.232Z,97579.75
2022-08-16T15:44:52.944Z,97583.81
2022-08-16T15:47:26.739Z,97574.25
2022-08-16T15:49:57.877Z,97580.66
2022-08-16T15:52:31.475Z,97588.75
2022-08-16T15:55:13.145Z,97579.34
2022-08-16T15:57:54.251Z,97581.59
2022-08-16T16:00:26.693Z,97584.53
2022-08-16T16:03:04.942Z,97588.22
2022-08-16T16:05:38.901Z,97584.81
2022-08-16T16:08:11.884Z,97582.22
2022-08-16T16:10:43.435Z,97582.22
2022-08-16T16:13:16.738Z,97585.78
2022-08-16T16:15:49.848Z,97579.78
2022-08-16T16:18:21.697Z,97585.28
2022-08-16T16:20:54.069Z,97580.88
2022-08-16T16:23:29.297Z,97583.31
2022-08-16T16:26:00.134Z,97586.25
2022-08-16T16:29:05.738Z,97576.06
2022-08-16T16:31:27.263Z,97581.44
2022-08-16T16:33:58.767Z,97572.69
2022-08-16T16:36:34.468Z,97575.47
2022-08-16T16:39:07.275Z,97577.69
2022-08-16T16:41:37.998Z,97574.00
2022-08-16T16:44:09.027Z,97569.38
2022-08-16T16:46:43.579Z,97570.00
2022-08-16T16:49:15.109Z,97569.59
2022-08-16T16:51:47.229Z,97563.84
2022-08-16T16:54:27.896Z,97569.16
2022-08-16T16:56:58.530Z,97564.97
2022-08-16T16:59:28.633Z,97569.22
2022-08-16T17:02:46.206Z,97572.31
2022-08-16T17:04:49.471Z,97565.56
2022-08-16T17:07:24.113Z,97565.91
2022-08-16T17:09:53.821Z,97566.44
2022-08-16T17:12:46.479Z,97571.06
2022-08-16T17:15:14.961Z,97567.50
2022-08-16T17:18:00.680Z,97573.66
2022-08-16T17:20:31.132Z,97580.28
2022-08-16T17:23:01.187Z,97576.38
2022-08-16T17:25:36.546Z,97572.59
2022-08-16T17:29:00.237Z,97576.34
2022-08-16T17:30:58.522Z,97575.59
2022-08-16T17:33:28.603Z,97570.41
2022-08-16T17:36:08.739Z,97572.38
2022-08-16T17:38:44.557Z,97578.78
2022-08-16T17:41:20.642Z,97577.25
2022-08-16T17:43:49.673Z,97584.22
2022-08-16T17:46:50.734Z,97586.38
2022-08-16T17:49:09.371Z,97589.28
2022-08-16T17:51:38.340Z,97594.66
2022-08-16T17:54:08.111Z,97601.09
2022-08-16T17:56:50.130Z,97592.22
2022-08-16T17:59:19.538Z,97600.25
2022-08-16T18:01:50.183Z,97607.41
2022-08-16T18:04:48.702Z,97597.53
2022-08-16T18:07:10.139Z,97610.16
2022-08-16T18:09:43.270Z,97613.69
2022-08-16T18:12:41.630Z,97608.16
2022-08-16T18:15:08.386Z,97606.66
2022-08-16T18:17:43.946Z,97610.22
2022-08-16T18:20:30.313Z,97615.34
2022-08-16T18:23:06.777Z,97611.66
2022-08-16T18:25:36.119Z,97619.19
2022-08-16T18:28:05.756Z,97624.50
2022-08-16T18:30:57.441Z,97625.16
2022-08-16T18:33:47.499Z,97623.66
2022-08-16T18:36:47.559Z,97627.00
2022-08-16T18:39:41.147Z,97625.44
2022-08-16T18:42:31.294Z,97622.72
2022-08-16T18:45:35.120Z,97626.06
2022-08-16T18:48:28.160Z,97624.41
2022-08-16T18:51:24.813Z,97630.41
2022-08-16T18:54:18.975Z,97635.84
2022-08-16T18:57:19.885Z,97633.06
2022-08-16T19:00:16.563Z,97632.50
2022-08-16T19:03:26.401Z,97638.41
2022-08-16T19:06:16.228Z,97641.06
2022-08-16T19:09:07.094Z,97637.16
2022-08-16T19:11:56.367Z,97639.22
2022-08-16T19:14:46.050Z,97641.28
2022-08-16T19:17:36.359Z,97652.31
2022-08-16T19:20:29.030Z,97659.53
2022-08-16T19:23:27.586Z,97658.28
2022-08-16T19:26:25.728Z,97667.38
2022-08-16T19:29:15.636Z,97667.47
2022-08-16T19:32:16.336Z,97669.19
2022-08-16T19:35:08.877Z,97673.66
2022-08-16T19:37:58.839Z,97683.50
2022-08-16T19:40:48.961Z,97677.34
2022-08-16T19:43:43.148Z,97682.38
2022-08-16T19:46:32.548Z,97687.88
2022-08-16T19:49:23.558Z,97681.97
2022-08-16T19:52:17.848Z,97683.97
2022-08-16T19:55:10.824Z,97684.56
2022-08-16T19:58:03.691Z,97678.41
2022-08-16T20:00:58.065Z,97688.25
2022-08-16T20:03:48.508Z,97687.50
2022-08-16T20:06:39.385Z,97691.34
2022-08-16T20:09:29.120Z,97696.59
2022-08-16T20:12:21.820Z,97695.59
2022-08-16T20:15:16.105Z,97701.06
2022-08-16T20:18:17.139Z,97713.56
2022-08-16T20:21:10.966Z,97713.38
2022-08-16T20:24:31.856Z,97710.22
2022-08-16T20:27:10.628Z,97721.63
2022-08-16T20:30:29.989Z,97721.19
2022-08-16T20:33:30.763Z,97718.03
2022-08-16T20:36:23.989Z,97721.13
2022-08-16T20:39:14.495Z,97726.06
2022-08-16T20:42:04.004Z,97724.81
2022-08-16T20:44:55.378Z,97726.44
2022-08-16T20:47:44.739Z,97725.38
2022-08-16T20:50:38.659Z,97731.13
2022-08-16T20:53:27.882Z,97729.84
2022-08-16T20:56:17.240Z,97730.41
2022-08-16T20:59:06.584Z,97731.56
2022-08-16T21:02:03.122Z,97728.38
2022-08-16T21:04:57.914Z,97724.13
2022-08-16T21:07:56.299Z,97727.19
2022-08-16T21:10:46.074Z,97730.22
2022-08-16T21:13:48.494Z,97729.50
2022-08-16T21:16:38.203Z,97737.44
2022-08-16T21:19:28.039Z,97742.72
2022-08-16T21:22:20.956Z,97737.03
2022-08-16T21:25:13.750Z,97743.78
2022-08-16T21:28:41.184Z,97752.19
2022-08-16T21:31:14.903Z,97753.34
2022-08-16T21:34:09.416Z,97751.78
2022-08-16T21:36:58.653Z,97752.69
2022-08-16T21:39:48.038Z,97748.88
2022-08-16T21:42:42.025Z,97753.31
2022-08-16T21:45:31.266Z,97757.72
2022-08-16T21:48:34.477Z,97763.41
2022-08-16T21:51:24.953Z,97752.09
2022-08-16T21:54:14.200Z,97756.72
2022-08-16T21:57:08.697Z,97752.44
2022-08-16T22:00:01.462Z,97768.66
2022-08-16T22:02:51.454Z,97760.88
2022-08-16T22:05:45.391Z,97760.91
2022-08-16T22:08:54.571Z,97753.13
2022-08-16T22:11:44.917Z,97757.50
2022-08-16T22:18:56.605Z,97749.56
2022-08-16T22:21:45.846Z,97743.19
2022-08-16T22:24:35.161Z,97754.84
2022-08-16T22:27:24.387Z,97755.91
2022-08-16T22:30:15.215Z,97756.81
2022-08-16T22:33:10.546Z,97753.09
2022-08-16T22:36:06.954Z,97762.03
2022-08-16T22:38:58.087Z,97759.38
2022-08-16T22:41:49.821Z,97760.25
2022-08-16T22:44:44.234Z,97755.53
2022-08-16T22:47:35.646Z,97754.53
2022-08-16T22:50:25.457Z,97758.69
2022-08-16T22:53:16.842Z,97757.44
2022-08-16T22:56:06.777Z,97754.81
2022-08-16T22:58:56.068Z,97755.47
2022-08-16T23:01:45.311Z,97751.78
2022-08-16T23:04:34.949Z,97755.09
2022-08-16T23:07:25.448Z,97755.97
2022-08-16T23:10:16.687Z,97763.81
2022-08-16T23:13:08.441Z,97762.59
2022-08-16T23:16:02.085Z,97756.03
2022-08-16T23:18:53.402Z,97756.66
2022-08-16T23:21:46.828Z,97755.22
2022-08-16T23:24:56.748Z,97753.16
2022-08-16T23:31:37.708Z,97754.78
2022-08-16T23:34:30.088Z,97760.00
2022-08-16T23:37:19.396Z,97754.00
2022-08-16T23:40:12.687Z,97751.56
2022-08-16T23:43:07.471Z,97761.03
2022-08-16T23:46:00.662Z,97752.19
2022-08-16T23:49:56.220Z,97748.69
2022-08-16T23:52:00.471Z,97753.06
2022-08-16T23:54:50.486Z,97752.63
2022-08-16T23:57:39.622Z,97753.25
